Kranj, Slovenia
Current Conditions -  °F | °C
As of 9:00 PM on Sunday 21 Dec 2014 (Local Time) from LJLJ Reporting Station
Clear Clear  
Wind Chill: 25°   Ceiling: Unl
Heat Index: 30°   Visibility: 6mi
Dew Point: 27°   Wind: 5mph
Humidity: 86%   Direction: 300°WNW
Pressure: 30.42"   Gusts: NA
Location:  46.24°N, 14.36°E
Report Text: LJLJ 211900Z 30004KT CAVOK M01/M03 Q1030 NOSIG
Loading
Personal Weather Stations






























Interactive Weather Map New forecast layout! Learn more

10-Day Weather Forecast

Advertisements
Track Severe Weather on mobile